Time;durP1;ratioP1;P1;durP2;ratioP2;P2;SDS_P1;SDS_P2;PMS_P1;PMS_P2;Temp;Humidity;BMP_temperature;BMP_pressure;BME280_temperature;BME280_humidity;BME280_pressure;Samples;Min_cycle;Max_cycle;Signal;HPM_P1;HPM_P2
2022/11/21 00:01:25;;;;;;;64.33;33.50;;;0.30;99.90;;;;;;10357286;28;20298;-84
2022/11/21 00:06:28;;;;;;;58.47;31.47;;;0.00;99.90;;;;;;10348618;28;20220;-84
2022/11/21 00:11:30;;;;;;;65.70;33.13;;;-0.10;99.90;;;;;;10352194;28;20278;-84
2022/11/21 00:16:32;;;;;;;62.57;31.47;;;-0.40;99.90;;;;;;10353173;28;20333;-84
2022/11/21 00:21:35;;;;;;;58.63;30.97;;;-0.20;99.90;;;;;;10363799;28;20275;-84
2022/11/21 00:26:37;;;;;;;64.90;37.60;;;-0.20;99.90;;;;;;10363968;28;20768;-84
2022/11/21 00:31:40;;;;;;;50.33;28.77;;;-1.70;99.90;;;;;;10367064;28;20270;-84
2022/11/21 00:36:42;;;;;;;53.93;29.03;;;-1.90;99.90;;;;;;10373323;28;20240;-85
2022/11/21 00:41:45;;;;;;;57.97;28.63;;;-1.20;99.90;;;;;;10372698;28;20298;-85
2022/11/21 00:46:47;;;;;;;51.53;26.67;;;-0.70;99.90;;;;;;10367828;28;20201;-85
2022/11/21 00:51:50;;;;;;;56.20;28.50;;;-0.40;99.90;;;;;;10370056;28;20209;-85
2022/11/21 00:56:52;;;;;;;48.27;26.97;;;-0.30;99.90;;;;;;10340443;28;20251;-85
2022/11/21 01:01:55;;;;;;;53.70;28.20;;;-0.40;99.90;;;;;;10371528;28;20250;-85
2022/11/21 01:06:57;;;;;;;49.87;27.00;;;-0.40;99.90;;;;;;10370181;28;20670;-85
2022/11/21 01:12:00;;;;;;;52.93;27.50;;;0.40;99.90;;;;;;10372394;28;20232;-85
2022/11/21 01:17:02;;;;;;;53.87;29.70;;;0.10;99.90;;;;;;10349976;28;20701;-85
2022/11/21 01:22:05;;;;;;;56.67;30.43;;;-0.40;99.90;;;;;;10371651;28;20249;-85
2022/11/21 01:27:07;;;;;;;52.40;28.47;;;-0.70;99.90;;;;;;10369442;28;20700;-85
2022/11/21 01:32:10;;;;;;;55.27;30.03;;;-0.40;99.90;;;;;;10362098;28;20214;-86
2022/11/21 01:37:12;;;;;;;58.63;30.00;;;-0.60;99.90;;;;;;10365026;28;20260;-85
2022/11/21 01:42:15;;;;;;;50.50;26.57;;;-0.80;99.90;;;;;;10372374;28;20279;-85
2022/11/21 01:47:17;;;;;;;52.97;27.70;;;-0.50;99.90;;;;;;10353959;28;20184;-86
2022/11/21 01:52:24;;;;;;;47.13;27.17;;;1.40;99.90;;;;;;10369768;28;20206;-85
2022/11/21 01:57:28;;;;;;;48.80;27.37;;;1.00;99.90;;;;;;10371395;28;20205;-85
2022/11/21 02:02:35;;;;;;;44.00;23.47;;;0.50;99.90;;;;;;10369886;28;20224;-85
2022/11/21 02:07:41;;;;;;;43.97;24.50;;;0.10;99.90;;;;;;10370152;28;20305;-86
2022/11/21 02:12:50;;;;;;;39.13;21.43;;;0.60;99.90;;;;;;10371250;28;20201;-85
2022/11/21 02:17:52;;;;;;;45.10;25.57;;;1.20;99.90;;;;;;10377764;28;20237;-86
2022/11/21 02:23:13;;;;;;;63.37;32.57;;;1.50;99.90;;;;;;10362208;28;20236;-85
2022/11/21 02:28:19;;;;;;;47.67;26.33;;;1.60;99.90;;;;;;10354497;28;20253;-86
2022/11/21 02:33:22;;;;;;;40.80;24.77;;;1.80;99.90;;;;;;10371500;28;20196;-85
2022/11/21 02:38:37;;;;;;;40.33;24.03;;;2.20;99.90;;;;;;10369716;28;20204;-86
2022/11/21 02:43:59;;;;;;;31.77;19.80;;;1.60;99.90;;;;;;10370821;28;20271;-85
2022/11/21 02:49:07;;;;;;;37.60;22.13;;;2.10;99.90;;;;;;10352766;28;20257;-85
2022/11/21 02:54:09;;;;;;;46.47;26.73;;;2.10;99.90;;;;;;10348874;28;20249;-85
2022/11/21 02:59:11;;;;;;;29.87;17.77;;;1.90;99.90;;;;;;10352209;28;20247;-85
2022/11/21 03:04:14;;;;;;;41.27;24.10;;;2.70;99.90;;;;;;10351782;28;20229;-85
2022/11/21 03:09:17;;;;;;;40.20;22.80;;;3.60;99.90;;;;;;10351576;28;20239;-85
2022/11/21 03:14:19;;;;;;;40.67;23.33;;;3.20;99.90;;;;;;10374047;28;20218;-85
2022/11/21 03:19:22;;;;;;;39.87;23.87;;;3.60;99.90;;;;;;10361252;28;20792;-85
2022/11/21 03:24:24;;;;;;;31.67;18.53;;;4.40;99.90;;;;;;10373685;28;20231;-85
2022/11/21 03:29:27;;;;;;;40.43;22.13;;;4.50;99.90;;;;;;10375471;28;20238;-85
2022/11/21 03:34:29;;;;;;;36.53;21.13;;;4.30;99.90;;;;;;10374021;28;20228;-86
2022/11/21 03:39:32;;;;;;;38.30;22.40;;;4.70;99.90;;;;;;10374625;28;20252;-85
2022/11/21 03:44:35;;;;;;;31.43;18.17;;;4.10;99.90;;;;;;10374423;28;20261;-86
2022/11/21 03:49:37;;;;;;;30.03;18.17;;;5.50;99.90;;;;;;10371725;28;20255;-86
2022/11/21 03:54:39;;;;;;;35.10;22.03;;;4.90;99.90;;;;;;10375811;28;20274;-85
2022/11/21 03:59:42;;;;;;;29.90;18.47;;;5.60;99.90;;;;;;10374747;28;20250;-85
2022/11/21 04:04:45;;;;;;;25.40;15.87;;;6.20;99.90;;;;;;10374097;28;20230;-86
2022/11/21 04:09:47;;;;;;;37.10;23.57;;;6.10;99.90;;;;;;10356217;28;20711;-85
2022/11/21 04:14:50;;;;;;;34.07;21.37;;;5.80;99.90;;;;;;10355898;28;20285;-86
2022/11/21 04:19:52;;;;;;;30.37;19.63;;;5.20;99.90;;;;;;10370144;28;20274;-85
2022/11/21 04:24:55;;;;;;;32.93;20.03;;;4.70;99.90;;;;;;10371014;28;20365;-85
2022/11/21 04:29:57;;;;;;;36.53;22.03;;;4.90;99.90;;;;;;10356375;28;20234;-86
2022/11/21 04:35:00;;;;;;;31.07;18.90;;;3.80;99.90;;;;;;10372486;28;20843;-85
2022/11/21 04:40:02;;;;;;;25.57;16.57;;;4.40;99.90;;;;;;10353882;28;20594;-85
2022/11/21 04:45:06;;;;;;;40.40;25.77;;;5.00;99.90;;;;;;10363937;28;20236;-86
2022/11/21 04:50:10;;;;;;;43.13;25.50;;;4.10;99.90;;;;;;10370929;28;20230;-86
2022/11/21 04:55:13;;;;;;;44.43;25.53;;;3.90;99.90;;;;;;10351220;28;20585;-86
2022/11/21 05:00:17;;;;;;;47.07;27.80;;;4.10;99.90;;;;;;10370615;28;20639;-86
2022/11/21 05:05:25;;;;;;;43.00;25.80;;;4.40;99.90;;;;;;10371055;28;20229;-86
2022/11/21 05:10:29;;;;;;;29.83;18.57;;;5.40;99.90;;;;;;10369260;28;20239;-87
2022/11/21 05:15:31;;;;;;;31.00;18.63;;;6.00;99.90;;;;;;10361865;28;20603;-85
2022/11/21 05:20:34;;;;;;;31.40;19.27;;;6.10;99.90;;;;;;10368546;28;20287;-86
2022/11/21 05:25:39;;;;;;;41.77;26.93;;;6.20;99.90;;;;;;10351335;28;20264;-86
2022/11/21 05:30:41;;;;;;;37.87;23.63;;;4.70;99.90;;;;;;10348639;28;20283;-86
2022/11/21 05:35:44;;;;;;;42.40;25.67;;;4.90;99.90;;;;;;10343641;28;20285;-84
2022/11/21 05:40:46;;;;;;;37.83;23.83;;;4.70;99.90;;;;;;10365490;28;20256;-84
2022/11/21 05:45:49;;;;;;;29.47;18.20;;;4.50;99.90;;;;;;10327922;28;20212;-84
2022/11/21 05:50:51;;;;;;;29.00;16.83;;;5.10;99.90;;;;;;10327575;28;20260;-85
2022/11/21 05:55:54;;;;;;;34.10;18.37;;;5.30;99.90;;;;;;10328279;28;20686;-84
2022/11/21 06:00:57;;;;;;;27.13;17.37;;;5.30;99.90;;;;;;10332479;28;20306;-84
2022/11/21 06:06:05;;;;;;;45.03;24.77;;;5.40;99.90;;;;;;10335379;28;20214;-84
2022/11/21 06:11:13;;;;;;;48.83;27.93;;;5.50;99.90;;;;;;10366122;28;21001;-84
2022/11/21 06:16:20;;;;;;;46.17;27.43;;;5.30;99.90;;;;;;10365790;28;20680;-85
2022/11/21 06:21:27;;;;;;;35.60;21.87;;;4.90;99.90;;;;;;10361072;28;20252;-86
2022/11/21 06:26:29;;;;;;;29.63;17.70;;;5.10;99.90;;;;;;10350865;28;20308;-86
2022/11/21 06:31:31;;;;;;;34.60;20.23;;;4.90;99.90;;;;;;10366471;28;20334;-86
2022/11/21 06:36:34;;;;;;;35.70;20.97;;;4.70;99.90;;;;;;10368202;28;20562;-86
2022/11/21 06:41:36;;;;;;;33.00;20.40;;;4.60;99.90;;;;;;10367287;28;20643;-86
2022/11/21 06:46:39;;;;;;;43.70;27.57;;;4.80;99.90;;;;;;10346046;28;20225;-85
2022/11/21 06:51:41;;;;;;;38.93;21.73;;;2.50;99.90;;;;;;10342451;28;20236;-84
2022/11/21 06:56:44;;;;;;;38.10;21.20;;;1.20;99.90;;;;;;10358463;28;20240;-88
2022/11/21 07:01:46;;;;;;;40.40;21.37;;;4.40;99.90;;;;;;10340073;28;20688;-88
2022/11/21 07:06:49;;;;;;;39.23;22.27;;;5.00;99.90;;;;;;10382096;28;20231;-89
2022/11/21 07:11:51;;;;;;;31.23;20.33;;;5.10;99.90;;;;;;10354921;28;20584;-89
2022/11/21 07:16:54;;;;;;;32.37;20.40;;;5.60;99.90;;;;;;10328153;28;20322;-90
2022/11/21 07:21:56;;;;;;;36.80;20.87;;;5.80;99.90;;;;;;10341199;28;20245;-89
2022/11/21 07:27:00;;;;;;;32.90;20.73;;;6.60;99.90;;;;;;10367742;28;20225;-90
2022/11/21 07:32:03;;;;;;;35.87;20.73;;;6.90;99.90;;;;;;10349949;28;20212;-88
2022/11/21 07:37:05;;;;;;;35.23;20.83;;;6.50;99.90;;;;;;10337184;28;20232;-88
2022/11/21 07:42:08;;;;;;;32.87;19.90;;;6.40;99.90;;;;;;10343435;28;20305;-88
2022/11/21 07:47:10;;;;;;;37.50;22.43;;;6.30;99.90;;;;;;10365754;28;20214;-88
2022/11/21 07:52:13;;;;;;;58.67;36.17;;;6.70;99.90;;;;;;10360418;28;20247;-86
2022/11/21 07:57:16;;;;;;;56.60;33.97;;;4.20;98.00;;;;;;10366561;28;20640;-86
2022/11/21 08:02:22;;;;;;;67.63;37.93;;;1.40;99.90;;;;;;10365627;28;20793;-86
2022/11/21 08:07:25;;;;;;;62.87;35.77;;;0.30;99.90;;;;;;10363794;28;20256;-86
2022/11/21 08:12:27;;;;;;;62.50;38.40;;;-0.30;99.90;;;;;;10359411;28;20243;-86
2022/11/21 08:17:30;;;;;;;73.73;37.40;;;-0.50;99.90;;;;;;10356296;28;20886;-86
2022/11/21 08:22:40;;;;;;;61.43;36.30;;;-0.70;99.90;;;;;;10371725;28;20714;-85
2022/11/21 08:27:43;;;;;;;64.67;37.13;;;-0.80;99.90;;;;;;10400243;28;20999;-87
2022/11/21 08:32:45;;;;;;;81.37;43.83;;;-0.90;99.90;;;;;;10400549;28;20232;-87
2022/11/21 08:37:48;;;;;;;66.87;39.10;;;-0.30;99.90;;;;;;10370782;28;20236;-89
2022/11/21 08:42:57;;;;;;;71.70;43.50;;;-0.50;99.90;;;;;;10342949;28;20252;-89
2022/11/21 08:48:00;;;;;;;85.00;40.93;;;-0.80;99.90;;;;;;10338420;28;20256;-90
2022/11/21 08:53:03;;;;;;;86.30;61.47;;;0.90;99.90;;;;;;10371789;28;20749;-89
2022/11/21 08:58:05;;;;;;;70.90;44.80;;;3.50;99.90;;;;;;10359416;28;20235;-89
2022/11/21 09:03:07;;;;;;;74.63;44.03;;;0.30;99.90;;;;;;10354353;28;20244;-90
2022/11/21 09:08:10;;;;;;;84.00;51.40;;;-0.50;99.90;;;;;;10364337;28;20223;-90
2022/11/21 09:13:12;;;;;;;93.83;57.37;;;-0.70;99.90;;;;;;10344917;28;20251;-89
2022/11/21 09:18:15;;;;;;;90.27;54.57;;;-0.80;99.90;;;;;;10361153;28;20323;-90
2022/11/21 09:23:17;;;;;;;45.27;25.47;;;-0.80;99.90;;;;;;10361984;28;20294;-90
2022/11/21 09:28:20;;;;;;;50.07;27.57;;;0.80;99.90;;;;;;10369933;28;20247;-91
2022/11/21 09:33:22;;;;;;;54.17;30.27;;;3.20;99.90;;;;;;10339131;28;20624;-86
2022/11/21 09:38:26;;;;;;;47.03;26.27;;;4.00;99.90;;;;;;10325872;28;20686;-82
2022/11/21 09:44:10;;;;;;;49.73;28.60;;;4.40;99.90;;;;;;10319979;28;20702;-83
2022/11/21 09:49:15;;;;;;;52.00;29.60;;;5.80;99.90;;;;;;10316942;28;20287;-83
2022/11/21 09:54:29;;;;;;;47.73;28.70;;;6.00;99.90;;;;;;10329013;28;20255;-84
2022/11/21 09:59:35;;;;;;;44.73;27.60;;;5.70;99.90;;;;;;10339081;28;20232;-83
2022/11/21 10:04:38;;;;;;;47.30;26.60;;;5.90;99.90;;;;;;10343429;28;20244;-83
2022/11/21 10:10:13;;;;;;;59.47;34.80;;;5.60;99.90;;;;;;10327288;28;20739;-83
2022/11/21 10:15:31;;;;;;;55.30;30.10;;;6.20;99.90;;;;;;10339767;28;20259;-83
2022/11/21 10:20:48;;;;;;;38.33;24.97;;;6.30;99.90;;;;;;10263491;28;20252;-84
2022/11/21 10:25:56;;;;;;;44.97;25.67;;;6.60;99.90;;;;;;10269835;28;20297;-83
2022/11/21 10:31:00;;;;;;;50.07;26.80;;;6.50;99.90;;;;;;10267809;28;20303;-83
2022/11/21 10:36:25;;;;;;;45.17;26.27;;;7.00;99.90;;;;;;10267277;28;20648;-83
2022/11/21 10:41:54;;;;;;;53.37;33.30;;;7.20;99.90;;;;;;10270427;28;20249;-82
2022/11/21 10:46:58;;;;;;;45.77;30.00;;;6.40;99.90;;;;;;10270782;28;20202;-82
2022/11/21 10:52:18;;;;;;;42.53;23.40;;;6.50;99.90;;;;;;10224261;28;20243;-82
2022/11/21 10:57:20;;;;;;;40.73;23.90;;;7.10;99.90;;;;;;10301175;28;20229;-83
2022/11/21 11:02:24;;;;;;;44.23;27.07;;;7.50;99.90;;;;;;10287424;28;20261;-82
2022/11/21 11:07:27;;;;;;;49.80;31.80;;;7.50;99.90;;;;;;10256486;28;20194;-83
2022/11/21 11:18:03;;;;;;;40.17;23.90;;;6.70;99.90;;;;;;10352895;28;20295;-83
2022/11/21 11:23:29;;;;;;;47.07;30.07;;;6.90;99.90;;;;;;10365931;28;20262;-82
2022/11/21 11:28:35;;;;;;;38.43;23.43;;;5.50;99.90;;;;;;10332717;28;20297;-83
2022/11/21 11:33:50;;;;;;;54.93;30.47;;;6.10;99.90;;;;;;10330141;28;20236;-83
2022/11/21 11:39:01;;;;;;;46.33;28.83;;;5.80;99.90;;;;;;10333516;28;20233;-82
2022/11/21 11:50:10;;;;;;;47.77;29.93;;;5.40;99.90;;;;;;10330824;28;20932;-82
2022/11/21 11:55:25;;;;;;;45.33;28.87;;;5.50;99.90;;;;;;10329560;28;20229;-82
2022/11/21 12:00:38;;;;;;;41.50;25.20;;;4.40;99.90;;;;;;10329828;28;20233;-82
2022/11/21 12:05:57;;;;;;;51.13;30.40;;;4.70;99.90;;;;;;10351820;28;20225;-82
2022/11/21 12:16:35;;;;;;;49.03;30.43;;;4.50;99.90;;;;;;10331416;28;20656;-82
2022/11/21 12:21:38;;;;;;;45.00;28.00;;;4.40;99.90;;;;;;10327652;28;20244;-82
2022/11/21 12:26:49;;;;;;;44.20;27.10;;;4.60;99.90;;;;;;10331234;28;20260;-82
2022/11/21 12:32:23;;;;;;;53.00;30.67;;;4.70;99.90;;;;;;10331258;28;20234;-82
2022/11/21 12:37:53;;;;;;;51.17;30.80;;;4.60;99.90;;;;;;10322851;28;20279;-82
2022/11/21 12:43:39;;;;;;;46.17;27.00;;;4.70;99.90;;;;;;10330747;28;20648;-82
2022/11/21 12:54:30;;;;;;;50.43;28.33;;;4.40;99.90;;;;;;10362262;28;20257;-82
2022/11/21 13:00:06;;;;;;;55.70;32.10;;;4.80;99.90;;;;;;10331264;28;20238;-82
2022/11/21 13:05:26;;;;;;;49.10;29.30;;;4.80;99.90;;;;;;10328963;28;20321;-82
2022/11/21 13:10:30;;;;;;;54.50;30.70;;;4.60;99.90;;;;;;10329643;28;20226;-82
2022/11/21 13:15:51;;;;;;;56.90;31.73;;;5.00;99.90;;;;;;10329514;28;20454;-82
2022/11/21 13:20:53;;;;;;;55.57;31.83;;;4.60;99.90;;;;;;10329423;28;20305;-82
2022/11/21 13:25:56;;;;;;;79.03;41.63;;;5.30;99.90;;;;;;10329425;28;20229;-82
2022/11/21 13:31:04;;;;;;;45.40;27.00;;;5.60;99.90;;;;;;10328283;28;20261;-82
2022/11/21 13:36:33;;;;;;;64.57;34.13;;;5.70;99.90;;;;;;10329759;28;20230;-82
2022/11/21 13:47:25;;;;;;;46.40;26.30;;;5.10;99.90;;;;;;10329444;28;20223;-82
2022/11/21 13:52:39;;;;;;;52.70;30.13;;;5.10;99.90;;;;;;10327151;28;20223;-82
2022/11/21 13:57:49;;;;;;;58.33;35.07;;;5.20;99.90;;;;;;10323711;28;20233;-82
2022/11/21 14:03:10;;;;;;;57.80;31.97;;;5.00;99.90;;;;;;10328854;28;20253;-82
2022/11/21 14:08:25;;;;;;;68.03;36.27;;;5.00;99.90;;;;;;10328120;28;20234;-82
2022/11/21 14:13:35;;;;;;;42.13;24.60;;;5.10;99.90;;;;;;10328183;28;20261;-82
2022/11/21 14:18:42;;;;;;;71.83;37.50;;;4.50;99.90;;;;;;10328200;28;20270;-82
2022/11/21 14:23:45;;;;;;;71.57;37.43;;;4.70;99.90;;;;;;10327239;28;20604;-82
2022/11/21 14:28:48;;;;;;;185.27;93.90;;;5.00;99.90;;;;;;10327824;28;20322;-82
2022/11/21 14:33:57;;;;;;;220.90;114.03;;;4.60;99.90;;;;;;10359367;28;20277;-82
2022/11/21 14:39:05;;;;;;;105.00;59.20;;;4.70;99.90;;;;;;10325992;28;20286;-82
2022/11/21 14:44:27;;;;;;;77.07;39.00;;;4.20;99.90;;;;;;10327723;28;20712;-82
2022/11/21 14:49:30;;;;;;;123.57;59.27;;;4.20;99.90;;;;;;10327478;28;20234;-81
2022/11/21 14:54:41;;;;;;;133.87;57.73;;;4.30;99.90;;;;;;10325051;28;20207;-82
2022/11/21 15:00:06;;;;;;;55.77;28.17;;;4.60;99.90;;;;;;10338852;28;20219;-82
2022/11/21 15:05:14;;;;;;;54.80;28.60;;;4.70;99.90;;;;;;10303339;28;20249;-82
2022/11/21 15:10:36;;;;;;;52.73;29.33;;;5.20;99.90;;;;;;10352162;28;20207;-82
2022/11/21 15:15:45;;;;;;;55.83;28.20;;;4.90;99.90;;;;;;10335123;28;20240;-82
2022/11/21 15:20:54;;;;;;;66.17;33.17;;;6.10;99.90;;;;;;10333669;28;20273;-82
2022/11/21 15:25:58;;;;;;;54.97;29.97;;;6.00;99.90;;;;;;10335034;28;20801;-81
2022/11/21 15:31:17;;;;;;;68.50;35.90;;;6.30;99.90;;;;;;10335195;28;20228;-82
2022/11/21 15:36:19;;;;;;;53.30;30.97;;;6.30;99.90;;;;;;10334777;28;20248;-81
2022/11/21 15:41:25;;;;;;;63.17;33.73;;;6.00;99.90;;;;;;10332447;28;20234;-82
2022/11/21 15:46:30;;;;;;;53.03;30.40;;;5.50;99.90;;;;;;10334544;28;20191;-82
2022/11/21 15:51:36;;;;;;;70.90;35.07;;;6.30;99.90;;;;;;10333942;28;20568;-82
2022/11/21 15:56:58;;;;;;;64.33;32.73;;;6.20;99.90;;;;;;10331929;28;20215;-82
2022/11/21 16:02:01;;;;;;;54.80;30.80;;;5.70;99.90;;;;;;10362640;28;20289;-82
2022/11/21 16:07:03;;;;;;;73.90;39.77;;;5.40;99.90;;;;;;10327200;28;20223;-82
2022/11/21 16:12:08;;;;;;;56.90;31.37;;;5.00;99.90;;;;;;10331082;28;20254;-82
2022/11/21 16:17:10;;;;;;;71.43;34.23;;;5.60;99.90;;;;;;10332400;28;20294;-82
2022/11/21 16:22:13;;;;;;;71.53;38.93;;;5.30;99.90;;;;;;10332393;28;20239;-82
2022/11/21 16:27:15;;;;;;;68.20;36.17;;;5.10;99.90;;;;;;10332124;28;20224;-82
2022/11/21 16:32:18;;;;;;;63.47;34.30;;;5.70;99.90;;;;;;10330755;28;20218;-82
2022/11/21 16:37:20;;;;;;;50.57;29.53;;;5.70;99.90;;;;;;10330684;28;20279;-82
2022/11/21 16:42:23;;;;;;;50.23;27.97;;;6.90;99.90;;;;;;10332056;28;20701;-82
2022/11/21 16:47:25;;;;;;;62.67;33.27;;;7.20;99.90;;;;;;9986325;28;10000490;-82
2022/11/21 16:52:33;;;;;;;67.57;32.97;;;7.20;99.90;;;;;;10327920;28;20763;-82
2022/11/21 16:57:35;;;;;;;49.00;29.03;;;7.00;99.90;;;;;;10325724;28;20252;-82
2022/11/21 17:02:38;;;;;;;65.17;34.57;;;7.20;99.90;;;;;;10328454;28;20307;-82
2022/11/21 17:07:40;;;;;;;84.77;42.40;;;6.60;99.90;;;;;;10326775;28;20233;-83
2022/11/21 17:12:43;;;;;;;102.53;55.67;;;5.90;99.90;;;;;;10327597;28;20575;-82
2022/11/21 17:17:46;;;;;;;91.87;47.53;;;5.70;99.90;;;;;;10325762;28;20266;-82
2022/11/21 17:22:48;;;;;;;50.23;26.57;;;5.40;99.90;;;;;;10327004;28;20648;-82
2022/11/21 17:27:51;;;;;;;80.10;42.10;;;5.30;99.90;;;;;;10325896;28;20228;-82
2022/11/21 17:32:53;;;;;;;79.03;42.60;;;4.60;99.90;;;;;;10326694;28;20239;-82
2022/11/21 17:37:56;;;;;;;101.33;49.87;;;5.00;99.90;;;;;;10326363;28;20756;-82
2022/11/21 17:42:58;;;;;;;56.13;30.23;;;5.50;99.90;;;;;;10328938;28;20252;-83
2022/11/21 17:48:01;;;;;;;61.67;32.10;;;5.60;99.90;;;;;;10326166;28;20231;-82
2022/11/21 17:53:03;;;;;;;52.67;28.77;;;6.50;99.90;;;;;;10342783;28;20552;-82
2022/11/21 17:58:06;;;;;;;83.63;40.37;;;6.60;99.90;;;;;;10344483;28;20217;-83
2022/11/21 18:03:09;;;;;;;72.30;37.00;;;6.30;99.90;;;;;;10326484;28;20248;-83
2022/11/21 18:08:11;;;;;;;88.03;46.60;;;6.80;99.90;;;;;;10326414;28;20208;-83
2022/11/21 18:13:14;;;;;;;79.53;40.63;;;6.90;99.90;;;;;;10326906;28;20278;-82
2022/11/21 18:18:16;;;;;;;96.07;44.83;;;6.00;99.90;;;;;;10328006;28;20232;-82
2022/11/21 18:23:19;;;;;;;65.13;34.20;;;5.50;99.90;;;;;;10305925;28;20674;-83
2022/11/21 18:28:21;;;;;;;75.07;39.73;;;5.90;99.90;;;;;;10327530;28;20262;-82
2022/11/21 18:33:24;;;;;;;80.97;40.70;;;6.30;99.90;;;;;;10327632;28;20233;-82
2022/11/21 18:38:29;;;;;;;105.07;50.20;;;7.00;99.90;;;;;;10326263;28;20695;-83
2022/11/21 18:43:59;;;;;;;89.33;47.60;;;5.50;99.90;;;;;;10326611;28;20375;-82
2022/11/21 18:49:02;;;;;;;127.80;62.10;;;5.20;99.90;;;;;;10335739;28;20916;-83
2022/11/21 18:54:09;;;;;;;114.77;57.00;;;5.20;99.90;;;;;;10325622;28;20682;-82
2022/11/21 18:59:12;;;;;;;121.00;54.37;;;4.70;99.90;;;;;;10325656;28;20698;-83
2022/11/21 19:04:14;;;;;;;83.00;41.90;;;4.40;99.90;;;;;;10325540;28;20283;-83
2022/11/21 19:09:17;;;;;;;99.27;49.00;;;5.40;99.90;;;;;;10325166;28;20232;-83
2022/11/21 19:14:20;;;;;;;64.23;31.40;;;5.40;99.90;;;;;;10326628;28;20209;-83
2022/11/21 19:19:22;;;;;;;67.87;34.23;;;5.20;99.90;;;;;;10340341;28;20279;-83
2022/11/21 19:24:36;;;;;;;45.37;23.83;;;6.20;99.90;;;;;;10325642;28;20262;-84
2022/11/21 19:29:39;;;;;;;39.00;21.27;;;6.00;99.90;;;;;;10321026;28;20832;-84
2022/11/21 19:34:41;;;;;;;40.53;24.03;;;4.60;99.90;;;;;;10320983;28;20277;-83
2022/11/21 19:39:44;;;;;;;62.07;31.67;;;4.60;99.90;;;;;;10321396;28;20280;-83
2022/11/21 19:44:46;;;;;;;52.80;29.93;;;4.60;99.90;;;;;;10317798;28;20694;-83
2022/11/21 19:49:49;;;;;;;58.60;31.53;;;5.30;99.90;;;;;;10322867;28;20221;-83
2022/11/21 19:54:52;;;;;;;66.03;32.77;;;5.40;99.90;;;;;;10322308;28;20294;-83
2022/11/21 19:59:54;;;;;;;42.63;23.80;;;5.70;99.90;;;;;;10331242;28;20244;-83
2022/11/21 20:04:56;;;;;;;51.30;26.47;;;5.60;99.90;;;;;;10327716;28;20957;-83
2022/11/21 20:09:59;;;;;;;49.17;30.40;;;5.80;99.90;;;;;;10325454;28;20223;-83
2022/11/21 20:15:02;;;;;;;54.23;31.10;;;5.20;99.90;;;;;;10330429;28;20622;-83
2022/11/21 20:20:04;;;;;;;37.53;21.40;;;4.70;99.90;;;;;;10327658;28;20723;-83
2022/11/21 20:25:07;;;;;;;38.70;21.30;;;4.60;99.90;;;;;;10328877;28;20642;-83
2022/11/21 20:30:10;;;;;;;43.17;25.40;;;4.60;99.90;;;;;;10318921;28;20657;-84
2022/11/21 20:35:13;;;;;;;40.73;23.27;;;5.00;99.90;;;;;;10326427;28;20681;-84
2022/11/21 20:40:15;;;;;;;38.30;22.77;;;4.80;99.90;;;;;;10323498;28;20236;-85
2022/11/21 20:45:18;;;;;;;40.27;22.30;;;4.90;99.90;;;;;;10329825;28;20996;-84
2022/11/21 20:50:40;;;;;;;40.13;22.77;;;4.80;99.90;;;;;;10326852;28;20207;-85
2022/11/21 20:56:06;;;;;;;33.20;19.10;;;5.10;99.90;;;;;;10328673;28;20225;-84
2022/11/21 21:01:14;;;;;;;24.33;16.10;;;4.60;99.90;;;;;;10324030;28;20239;-85
2022/11/21 21:06:17;;;;;;;26.40;16.83;;;4.90;99.90;;;;;;10327195;28;20784;-83
2022/11/21 21:11:23;;;;;;;36.03;19.50;;;4.60;99.90;;;;;;10324740;28;20282;-83
2022/11/21 21:16:46;;;;;;;37.83;22.50;;;4.20;99.90;;;;;;10326449;28;20704;-83
2022/11/21 21:21:48;;;;;;;32.83;20.13;;;4.80;99.90;;;;;;10321648;28;20205;-83
2022/11/21 21:26:51;;;;;;;33.57;18.07;;;4.80;99.90;;;;;;10327870;28;20671;-83
2022/11/21 21:31:53;;;;;;;33.70;19.77;;;4.90;99.90;;;;;;10326177;28;20311;-82
2022/11/21 21:36:55;;;;;;;30.40;18.73;;;3.80;99.90;;;;;;10325801;28;20227;-82
2022/11/21 21:41:58;;;;;;;26.10;16.50;;;3.80;99.90;;;;;;10322601;28;20238;-82
2022/11/21 21:47:00;;;;;;;29.97;19.07;;;4.50;99.90;;;;;;10325007;28;20253;-82
2022/11/21 21:52:03;;;;;;;29.57;18.43;;;5.20;99.90;;;;;;10324927;28;20629;-82
2022/11/21 21:57:05;;;;;;;30.83;19.03;;;5.70;99.90;;;;;;10325375;28;20235;-82
2022/11/21 22:02:10;;;;;;;34.13;19.33;;;6.50;99.90;;;;;;10323539;28;20690;-82
2022/11/21 22:07:12;;;;;;;30.73;19.60;;;5.50;99.90;;;;;;10323753;28;20272;-82
2022/11/21 22:12:15;;;;;;;26.70;16.13;;;5.30;99.90;;;;;;10324046;28;20232;-83
2022/11/21 22:17:17;;;;;;;22.40;13.57;;;5.50;99.90;;;;;;10322584;28;20318;-83
2022/11/21 22:22:20;;;;;;;28.53;17.00;;;6.00;99.90;;;;;;10323012;28;20231;-83
2022/11/21 22:27:22;;;;;;;29.13;17.63;;;6.30;99.90;;;;;;10324191;28;20243;-83
2022/11/21 22:32:25;;;;;;;30.07;16.87;;;5.30;99.90;;;;;;10347879;28;20287;-83
2022/11/21 22:37:27;;;;;;;35.73;19.73;;;6.00;99.90;;;;;;10325843;28;20256;-83
2022/11/21 22:42:31;;;;;;;39.43;22.43;;;6.20;99.90;;;;;;10323933;28;20212;-83
2022/11/21 22:47:33;;;;;;;35.83;20.63;;;6.60;99.90;;;;;;10323813;28;20238;-83
2022/11/21 22:52:36;;;;;;;38.30;21.13;;;5.70;99.90;;;;;;10324174;28;20613;-83
2022/11/21 22:57:38;;;;;;;46.10;25.80;;;6.60;99.90;;;;;;10324589;28;20680;-83
2022/11/21 23:02:41;;;;;;;41.27;22.97;;;6.50;99.90;;;;;;10286819;28;20668;-83
2022/11/21 23:07:46;;;;;;;43.47;24.53;;;6.30;99.90;;;;;;10287081;28;20253;-83
2022/11/21 23:12:48;;;;;;;45.80;25.80;;;6.60;99.90;;;;;;10317607;28;20234;-82
2022/11/21 23:17:51;;;;;;;40.50;23.00;;;6.30;99.90;;;;;;10325736;28;20322;-83
2022/11/21 23:22:55;;;;;;;44.03;24.20;;;5.80;99.90;;;;;;10326653;28;20235;-83
2022/11/21 23:27:57;;;;;;;58.40;32.37;;;5.80;99.90;;;;;;10328781;28;20258;-83
2022/11/21 23:33:00;;;;;;;59.50;31.87;;;5.50;99.90;;;;;;10334452;28;20263;-83
2022/11/21 23:38:05;;;;;;;109.00;55.23;;;5.10;99.90;;;;;;10334395;28;20235;-83
2022/11/21 23:43:08;;;;;;;52.20;28.00;;;5.00;99.90;;;;;;10333814;28;20247;-83
2022/11/21 23:48:10;;;;;;;49.50;26.97;;;4.80;99.90;;;;;;10333932;28;20664;-82
2022/11/21 23:53:13;;;;;;;46.23;25.83;;;5.60;99.90;;;;;;10333230;28;20263;-83
2022/11/21 23:58:16;;;;;;;36.97;22.63;;;5.20;99.90;;;;;;10316273;28;20293;-83
